Independent — WDJ441 — position and weather

sailwx.info

Track history (hours):
 
Tides and Currents Weather Stations Pressure Air Temp Water Temp Dewpoint Dewpoint Depression Visibility Wind Speed Wind Dir Waves Ship Positions

Independent

Last reported at 2018-Feb-16 17:12 UTC. Time now 2018-Feb-19 06:29 UTC.
Position N 27°41' W 082°35'.

Length 28 m; draft 5 m.

Type: Tug. MMSI: 367777460.

Date/timePositionNaut miles runAvg speedWind from/ knotsBaromVisibWave heightAir tempDewpointWater temp
2018-Feb-16 17:12N 27°41' W 082°35'2 9.6
2018-Feb-16 17:00N 27°42' W 082°33'4 8.7
2018-Feb-16 16:30N 27°46' W 082°31'4 7.5
2018-Feb-16 16:01N 27°49' W 082°34'3 5.6
2018-Feb-16 15:30N 27°52' W 082°33'0 0.8
2018-Feb-16 15:00N 27°52' W 082°33'0 0.1
2018-Feb-16 14:30N 27°52' W 082°33'4 8.1
2018-Feb-16 14:01N 27°48' W 082°34'4 8.9
2018-Feb-16 13:30N 27°44' W 082°32'610.3
2018-Feb-16 12:56N 27°39' W 082°36'2 0.4
2018-Feb-16 07:42N 27°38' W 082°34'1 2.6
2018-Feb-16 07:20N 27°39' W 082°35'2 5.1
2018-Feb-16 06:59N 27°39' W 082°37'1 0.9
2018-Feb-16 06:25N 27°39' W 082°37'2 2.3
2018-Feb-16 05:30N 27°40' W 082°36'3 6.8
2018-Feb-16 05:00N 27°43' W 082°33'4 8.9
2018-Feb-16 04:30N 27°47' W 082°31'5 9.5
2018-Feb-16 04:00N 27°49' W 082°27'5 9.5
2018-Feb-16 03:30N 27°54' W 082°26'1 2.5
2018-Feb-16 03:01N 27°55' W 082°25'1 1.2
2018-Feb-16 02:30N 27°55' W 082°26'0 0.9
2018-Feb-16 01:59N 27°54' W 082°26'0 0.0
2018-Feb-16 01:30N 27°54' W 082°26'0 0.0
2018-Feb-16 01:00N 27°54' W 082°26'0 0.0
2018-Feb-16 00:30N 27°54' W 082°26'1 1.3
2018-Feb-16 00:00N 27°55' W 082°27'1 1.3
2018-Feb-15 23:30N 27°54' W 082°26'0 0.0
2018-Feb-15 23:00N 27°55' W 082°26'0 0.0
2018-Feb-15 22:30N 27°55' W 082°26'0 0.0
2018-Feb-15 22:00N 27°55' W 082°26'2 3.1
2018-Feb-15 21:30N 27°56' W 082°26'0 0.0
2018-Feb-15 20:59N 27°56' W 082°26'0 0.0
2018-Feb-15 20:30N 27°56' W 082°26'0 0.0
2018-Feb-15 19:57N 27°56' W 082°26'2 4.5
2018-Feb-15 19:30N 27°54' W 082°25'0 0.0
2018-Feb-15 19:00N 27°54' W 082°25'1 1.5
2018-Feb-15 18:30N 27°54' W 082°26'1 2.9
2018-Feb-15 18:01N 27°53' W 082°26'3 5.1
2018-Feb-15 17:31N 27°55' W 082°26'1 1.4
2018-Feb-15 17:00N 27°56' W 082°26'1 1.9
2018-Feb-15 16:30N 27°55' W 082°25'0 0.3
2018-Feb-15 16:00N 27°55' W 082°26'2 4.3
2018-Feb-15 15:30N 27°53' W 082°26'4 8.3
2018-Feb-15 15:00N 27°49' W 082°27'2 3.9
2018-Feb-15 14:30N 27°48' W 082°25'0 0.3
2018-Feb-15 14:00N 27°48' W 082°25'0 0.5
2018-Feb-15 13:30N 27°48' W 082°24'0 0.0
2018-Feb-15 13:00N 27°48' W 082°24'0 0.5
2018-Feb-15 12:29N 27°48' W 082°25'0 0.0
2018-Feb-15 11:57N 27°48' W 082°25'0 0.0
2018-Feb-15 11:30N 27°48' W 082°25'0 0.0
2018-Feb-15 11:00N 27°48' W 082°25'0 0.0
2018-Feb-15 10:27N 27°48' W 082°25'0 0.0
2018-Feb-15 10:00N 27°48' W 082°25'0 0.0
2018-Feb-15 09:26N 27°48' W 082°25'0 0.0
2018-Feb-15 09:00N 27°48' W 082°25'0 0.0
2018-Feb-15 08:30N 27°48' W 082°25'0 0.0
2018-Feb-15 08:00N 27°48' W 082°25'0 0.0
2018-Feb-15 07:30N 27°48' W 082°25'0 0.0
2018-Feb-15 07:00N 27°48' W 082°25'0 0.0
2018-Feb-15 06:30N 27°48' W 082°25'0 0.0
2018-Feb-15 05:50N 27°48' W 082°25'0 0.1
2018-Feb-15 05:30N 27°48' W 082°25'510.4
2018-Feb-15 05:01N 27°47' W 082°30'510.9
2018-Feb-15 04:30N 27°42' W 082°33'4 5.9
2018-Feb-15 03:45N 27°38' W 082°34'3 2.2
2018-Feb-15 02:22N 27°41' W 082°35'3 8.8
2018-Feb-15 02:01N 27°43' W 082°32'5 9.1
2018-Feb-15 01:30N 27°47' W 082°31'5 9.4
2018-Feb-15 01:01N 27°50' W 082°27'4 7.8
2018-Feb-15 00:30N 27°54' W 082°26'1 2.0
2018-Feb-15 00:01N 27°55' W 082°27'0 0.6
2018-Feb-14 23:30N 27°55' W 082°27'2 3.8
2018-Feb-14 23:00N 27°53' W 082°26'2 3.8
2018-Feb-14 22:30N 27°51' W 082°27'510.2
2018-Feb-14 22:00N 27°47' W 082°31'4 8.2
2018-Feb-14 21:30N 27°50' W 082°34'2 3.5
2018-Feb-14 21:01N 27°52' W 082°33'1 2.0
2018-Feb-14 20:30N 27°51' W 082°34'2 4.3
2018-Feb-14 20:01N 27°49' W 082°34'5 9.5
2018-Feb-14 19:31N 27°48' W 082°29'510.5
2018-Feb-14 19:00N 27°53' W 082°26'3 5.1
2018-Feb-14 18:30N 27°55' W 082°27'0 0.1
2018-Feb-14 18:00N 27°55' W 082°27'1 2.0
2018-Feb-14 17:30N 27°56' W 082°26'0 0.0
2018-Feb-14 16:55N 27°56' W 082°26'0 0.0
2018-Feb-14 16:30N 27°56' W 082°26'0 0.0
2018-Feb-14 16:00N 27°56' W 082°26'0 0.0
2018-Feb-14 15:30N 27°56' W 082°26'0 0.0
2018-Feb-14 15:00N 27°56' W 082°26'0 0.0
2018-Feb-14 14:30N 27°56' W 082°26'0 0.0
2018-Feb-14 14:00N 27°56' W 082°26'0 0.0
2018-Feb-14 13:29N 27°56' W 082°26'0 0.0
2018-Feb-14 13:00N 27°56' W 082°26'0 0.0
2018-Feb-14 12:30N 27°56' W 082°26'0 0.0
2018-Feb-14 12:00N 27°56' W 082°26'0 0.0
2018-Feb-14 11:30N 27°56' W 082°26'0 0.0
2018-Feb-14 10:58N 27°56' W 082°26'0 0.0
2018-Feb-14 10:30N 27°56' W 082°26'0 0.0
2018-Feb-14 10:00N 27°56' W 082°26'0 0.0
2018-Feb-14 09:30N 27°56' W 082°26'0 0.0
2018-Feb-14 09:00N 27°56' W 082°26'0 0.0
2018-Feb-14 08:30N 27°56' W 082°26'2 3.3
2018-Feb-14 08:00N 27°54' W 082°26'2 4.5
2018-Feb-14 07:30N 27°57' W 082°27'0 0.0
2018-Feb-14 07:00N 27°57' W 082°27'1 2.8
2018-Feb-14 06:30N 27°55' W 082°27'2 4.9
2018-Feb-14 06:00N 27°53' W 082°27'2 4.4
2018-Feb-14 05:31N 27°51' W 082°27'611.4
2018-Feb-14 05:01N 27°47' W 082°31'9 2.6
2018-Feb-14 01:29N 27°38' W 082°34'0 0.1
2018-Feb-14 01:00N 27°38' W 082°34'2 2.5
2018-Feb-14 00:18N 27°39' W 082°35'2 1.3
2018-Feb-13 22:20N 27°41' W 082°34'412.1
2018-Feb-13 22:00N 27°45' W 082°32'510.5
2018-Feb-13 21:30N 27°48' W 082°28'611.6
2018-Feb-13 21:00N 27°54' W 082°26'0 0.7
2018-Feb-13 20:31N 27°54' W 082°26'1 2.8
2018-Feb-13 20:00N 27°53' W 082°26'3 5.2
2018-Feb-13 19:31N 27°55' W 082°26'1 1.3
2018-Feb-13 19:00N 27°56' W 082°26'0 0.0
2018-Feb-13 18:30N 27°56' W 082°26'0 0.0
2018-Feb-13 18:00N 27°56' W 082°26'0 0.0
2018-Feb-13 17:30N 27°56' W 082°26'0 0.0
2018-Feb-13 16:59N 27°56' W 082°26'0 0.0
2018-Feb-13 16:30N 27°56' W 082°26'0 0.0
2018-Feb-13 15:59N 27°56' W 082°26'0 0.0
2018-Feb-13 15:30N 27°56' W 082°26'0 0.0
2018-Feb-13 15:00N 27°56' W 082°26'0 0.0
2018-Feb-13 14:30N 27°56' W 082°26'0 0.0
2018-Feb-13 14:00N 27°56' W 082°26'0 0.0
2018-Feb-13 13:30N 27°56' W 082°26'0 0.0
2018-Feb-13 13:00N 27°56' W 082°26'0 0.0
2018-Feb-13 12:30N 27°56' W 082°26'0 0.0
2018-Feb-13 12:00N 27°56' W 082°26'0 0.0
2018-Feb-13 11:30N 27°56' W 082°26'0 0.0
2018-Feb-13 11:00N 27°56' W 082°26'0 0.0
2018-Feb-13 10:30N 27°56' W 082°26'0 0.0
2018-Feb-13 10:00N 27°56' W 082°26'0 0.0
2018-Feb-13 09:30N 27°56' W 082°26'0 0.0
2018-Feb-13 09:00N 27°56' W 082°26'0 0.0
2018-Feb-13 08:30N 27°56' W 082°26'0 0.0
2018-Feb-13 08:00N 27°56' W 082°26'0 0.0
2018-Feb-13 07:30N 27°56' W 082°26'0 0.0
2018-Feb-13 07:00N 27°56' W 082°26'0 0.0
2018-Feb-13 06:30N 27°56' W 082°26'0 0.0
2018-Feb-13 06:00N 27°56' W 082°26'0 0.0
2018-Feb-13 05:30N 27°56' W 082°26'0 0.3
2018-Feb-13 05:00N 27°56' W 082°26'510.0
2018-Feb-13 04:30N 27°51' W 082°27'5 9.7
2018-Feb-13 04:00N 27°47' W 082°30'510.6
2018-Feb-13 03:30N 27°42' W 082°33'1 0.1
2018-Feb-12 11:22N 27°42' W 082°33'3 9.0
2018-Feb-12 11:00N 27°45' W 082°32'4 7.6
2018-Feb-12 10:30N 27°48' W 082°29'4 7.6
2018-Feb-12 10:01N 27°51' W 082°27'4 7.0
2018-Feb-12 09:30N 27°54' W 082°26'2 3.9
2018-Feb-12 09:00N 27°56' W 082°27'0 0.5
2018-Feb-12 08:30N 27°56' W 082°27'0 0.0
2018-Feb-12 08:00N 27°56' W 082°27'0 0.0
2018-Feb-12 07:30N 27°56' W 082°27'0 0.0
2018-Feb-12 07:00N 27°56' W 082°27'0 0.0
2018-Feb-12 06:30N 27°56' W 082°27'0 0.0
2018-Feb-12 06:00N 27°56' W 082°27'0 0.0
2018-Feb-12 05:30N 27°56' W 082°27'0 0.0
2018-Feb-12 05:00N 27°56' W 082°27'0 0.0
2018-Feb-12 04:30N 27°56' W 082°27'0 0.0
2018-Feb-12 04:00N 27°56' W 082°27'0 0.0
2018-Feb-12 03:30N 27°56' W 082°27'0 0.0
2018-Feb-12 03:00N 27°56' W 082°27'0 0.0
2018-Feb-12 02:30N 27°56' W 082°27'0 0.0
2018-Feb-12 02:01N 27°56' W 082°27'1 1.6
2018-Feb-12 01:30N 27°57' W 082°27'1 2.6
2018-Feb-12 01:00N 27°56' W 082°27'1 1.8
2018-Feb-12 00:30N 27°55' W 082°27'1 2.4
2018-Feb-12 00:00N 27°56' W 082°26'0 0.0
2018-Feb-11 23:30N 27°56' W 082°26'0 0.0
2018-Feb-11 23:00N 27°56' W 082°26'0 0.0
2018-Feb-11 22:30N 27°56' W 082°26'0 0.0
2018-Feb-11 22:00N 27°56' W 082°26'0 0.0
2018-Feb-11 21:30N 27°56' W 082°26'0 0.0
2018-Feb-11 21:00N 27°56' W 082°26'0 0.0
2018-Feb-11 20:29N 27°56' W 082°26'0 0.0
2018-Feb-11 20:00N 27°56' W 082°26'0 0.0
2018-Feb-11 19:30N 27°56' W 082°26'0 0.0
2018-Feb-11 19:00N 27°56' W 082°26'0 0.0
2018-Feb-11 18:30N 27°56' W 082°26'0 0.0
2018-Feb-11 18:00N 27°56' W 082°26'0 0.0
2018-Feb-11 17:30N 27°56' W 082°26'0 0.0
2018-Feb-11 17:00N 27°56' W 082°26'0 0.0
2018-Feb-11 16:30N 27°56' W 082°26'0 0.0
2018-Feb-11 16:00N 27°56' W 082°26'0 0.0
2018-Feb-11 15:29N 27°56' W 082°26'0 0.0
2018-Feb-11 15:00N 27°56' W 082°26'0 0.0
2018-Feb-11 14:30N 27°56' W 082°26'0 0.0
2018-Feb-11 13:58N 27°56' W 082°26'0 0.0
2018-Feb-11 13:30N 27°56' W 082°26'0 0.0
2018-Feb-11 13:00N 27°56' W 082°26'0 0.0
2018-Feb-11 12:30N 27°56' W 082°26'0 0.0
2018-Feb-11 12:00N 27°56' W 082°26'0 0.0
2018-Feb-11 11:30N 27°56' W 082°26'0 0.1
2018-Feb-11 11:00N 27°56' W 082°26'1 2.1
2018-Feb-11 10:31N 27°55' W 082°27'0 0.2
2018-Feb-11 10:00N 27°55' W 082°27'0 0.1
2018-Feb-11 09:30N 27°55' W 082°27'0 0.4
2018-Feb-11 09:00N 27°55' W 082°27'0 0.3
2018-Feb-11 08:30N 27°55' W 082°27'1 2.0
2018-Feb-11 08:00N 27°54' W 082°26'1 1.4
2018-Feb-11 07:30N 27°55' W 082°26'0 0.0
2018-Feb-11 07:00N 27°55' W 082°26'0 0.5
2018-Feb-11 06:31N 27°55' W 082°26'0 0.8
2018-Feb-11 06:00N 27°55' W 082°26'0 0.4
2018-Feb-11 05:30N 27°55' W 082°26'0 0.0
2018-Feb-11 05:00N 27°55' W 082°26'0 0.0
2018-Feb-11 04:30N 27°55' W 082°26'0 0.0
2018-Feb-11 04:01N 27°55' W 082°26'1 2.7
2018-Feb-11 03:30N 27°56' W 082°27'0 0.8
2018-Feb-11 03:00N 27°56' W 082°27'1 1.3
2018-Feb-11 02:30N 27°56' W 082°27'2 4.3
2018-Feb-11 02:00N 27°53' W 082°26'0 0.8
2018-Feb-11 01:30N 27°54' W 082°26'1 2.9
2018-Feb-11 01:00N 27°55' W 082°25'0 0.5
2018-Feb-11 00:30N 27°55' W 082°25'0 0.0
2018-Feb-11 00:00N 27°55' W 082°25'1 2.1
2018-Feb-10 23:30N 27°56' W 082°26'0 0.0
2018-Feb-10 23:00N 27°56' W 082°26'0 0.0
2018-Feb-10 22:30N 27°56' W 082°26'0 0.0
2018-Feb-10 22:00N 27°56' W 082°26'0 0.0
2018-Feb-10 21:30N 27°56' W 082°26'0 0.0
2018-Feb-10 21:00N 27°56' W 082°26'0 0.0
2018-Feb-10 20:30N 27°56' W 082°26'1 1.8
2018-Feb-10 20:00N 27°55' W 082°26'1 1.6
2018-Feb-10 19:30N 27°55' W 082°27'0 0.5
2018-Feb-10 19:00N 27°55' W 082°27'1 2.0
2018-Feb-10 18:30N 27°54' W 082°26'0 0.5
2018-Feb-10 18:01N 27°54' W 082°25'1 1.2
2018-Feb-10 17:30N 27°55' W 082°26'0 0.0
2018-Feb-10 17:00N 27°55' W 082°26'0 0.0
2018-Feb-10 16:30N 27°55' W 082°26'0 0.0
2018-Feb-10 15:59N 27°55' W 082°26'0 0.0
2018-Feb-10 15:30N 27°55' W 082°26'0 0.0
2018-Feb-10 15:00N 27°55' W 082°26'0 0.0
2018-Feb-10 14:30N 27°55' W 082°26'0 0.0
2018-Feb-10 14:00N 27°55' W 082°26'0 0.4
2018-Feb-10 13:31N 27°55' W 082°26'1 1.9
2018-Feb-10 13:00N 27°55' W 082°27'1 1.0
2018-Feb-10 12:30N 27°55' W 082°26'2 3.5
2018-Feb-10 12:00N 27°53' W 082°26'0 0.1
2018-Feb-10 11:30N 27°53' W 082°26'3 6.2
2018-Feb-10 11:00N 27°56' W 082°26'0 0.1
2018-Feb-10 10:30N 27°56' W 082°26'0 0.0
2018-Feb-10 10:00N 27°56' W 082°26'0 0.0
2018-Feb-10 09:30N 27°56' W 082°26'0 0.0
2018-Feb-10 09:00N 27°56' W 082°26'0 0.0
2018-Feb-10 08:30N 27°56' W 082°26'0 0.0
2018-Feb-10 08:00N 27°56' W 082°26'0 0.0
2018-Feb-10 07:30N 27°56' W 082°26'0 0.0
2018-Feb-10 07:00N 27°56' W 082°26'0 0.0
2018-Feb-10 06:30N 27°56' W 082°26'0 0.0
2018-Feb-10 06:00N 27°56' W 082°26'0 0.0
2018-Feb-10 05:30N 27°56' W 082°26'0 0.0
2018-Feb-10 05:00N 27°56' W 082°26'0 0.0
2018-Feb-10 04:30N 27°56' W 082°26'0 0.0
2018-Feb-10 04:00N 27°56' W 082°26'0 0.0
2018-Feb-10 03:30N 27°56' W 082°26'0 0.0
2018-Feb-10 03:00N 27°56' W 082°26'0 0.0
2018-Feb-10 02:30N 27°56' W 082°26'1 1.2
2018-Feb-10 02:00N 27°56' W 082°26'1 2.5
2018-Feb-10 01:30N 27°56' W 082°27'0 0.1
2018-Feb-10 01:01N 27°56' W 082°27'0 0.9
2018-Feb-10 00:30N 27°56' W 082°27'2 4.0
2018-Feb-10 00:00N 27°54' W 082°25'0 0.2
2018-Feb-09 23:30N 27°54' W 082°26'0 0.8
2018-Feb-09 23:00N 27°54' W 082°26'1 4.2
2018-Feb-09 22:46N 27°53' W 082°26'1 1.0
2018-Feb-09 22:01N 27°54' W 082°26'2 0.5
2018-Feb-09 18:00N 27°56' W 082°26'0 0.0
2018-Feb-09 17:00N 27°56' W 082°26'1 0.6
2018-Feb-09 15:31N 27°57' W 082°27'3 1.3
2018-Feb-09 13:30N 27°54' W 082°26'2 3.6
2018-Feb-09 13:00N 27°56' W 082°26'0 0.0
2018-Feb-09 10:00N 27°56' W 082°26'0 0.0
2018-Feb-09 09:30N 27°56' W 082°26'0 0.0
2018-Feb-09 08:30N 27°56' W 082°26'0 0.0
2018-Feb-09 08:00N 27°56' W 082°26'0 0.0
2018-Feb-09 06:30N 27°56' W 082°26'0 0.0
2018-Feb-09 06:00N 27°56' W 082°26'0 0.0
2018-Feb-09 05:30N 27°56' W 082°26'1 1.2
2018-Feb-09 04:30N 27°55' W 082°25'0 0.6
2018-Feb-09 04:00N 27°55' W 082°26'0 0.0
2018-Feb-09 03:30N 27°55' W 082°26'0 0.0
2018-Feb-09 02:30N 27°55' W 082°26'2 0.8
2018-Feb-09 00:30N 27°53' W 082°26'3 2.6
2018-Feb-08 23:30N 27°56' W 082°26'1 0.7
2018-Feb-08 22:30N 27°55' W 082°26'510.0
2018-Feb-08 22:00N 27°50' W 082°27'5 9.5
2018-Feb-08 21:30N 27°47' W 082°31'510.1
2018-Feb-08 21:00N 27°43' W 082°33'0 0.0
2018-Feb-08 17:30N 27°43' W 082°33'510.2
2018-Feb-08 17:00N 27°47' W 082°31'7 3.7
2018-Feb-08 15:00N 27°54' W 082°26'2 4.6
2018-Feb-08 14:30N 27°56' W 082°26'0 0.0
2018-Feb-08 13:30N 27°56' W 082°26'0 0.0
2018-Feb-08 10:00N 27°56' W 082°26'0 0.0
2018-Feb-08 08:30N 27°56' W 082°26'0 0.0
2018-Feb-08 07:30N 27°56' W 082°26'0 0.0
2018-Feb-08 06:30N 27°56' W 082°26'0 0.0
2018-Feb-08 05:30N 27°56' W 082°26'0 0.0
2018-Feb-08 04:30N 27°56' W 082°26'0 0.0
2018-Feb-08 03:30N 27°56' W 082°26'0 0.0
2018-Feb-08 03:00N 27°56' W 082°26'0 0.0
2018-Feb-08 02:30N 27°56' W 082°26'0 0.0
2018-Feb-08 01:29N 27°56' W 082°26'0 0.0
2018-Feb-08 01:00N 27°56' W 082°26'0 0.0
2018-Feb-08 00:30N 27°56' W 082°26'0 0.0
2018-Feb-08 00:00N 27°56' W 082°26'0 0.0
2018-Feb-07 23:30N 27°56' W 082°26'0 0.0
2018-Feb-07 23:00N 27°56' W 082°26'0 0.0
2018-Feb-07 22:30N 27°56' W 082°26'0 0.0
2018-Feb-07 22:00N 27°56' W 082°26'0 0.0
2018-Feb-07 21:29N 27°56' W 082°26'0 0.0
2018-Feb-07 09:29N 27°56' W 082°26'0 0.0
2018-Feb-07 09:00N 27°56' W 082°26'0 0.0
2018-Feb-07 08:30N 27°56' W 082°26'0 0.0
2018-Feb-07 08:00N 27°56' W 082°26'0 0.0
2018-Feb-07 07:30N 27°56' W 082°26'0 0.0
2018-Feb-07 07:00N 27°56' W 082°26'0 0.0
2018-Feb-07 06:30N 27°56' W 082°26'0 0.0
2018-Feb-07 05:59N 27°56' W 082°26'0 0.0
2018-Feb-07 05:29N 27°56' W 082°26'0 0.0
2018-Feb-07 05:00N 27°56' W 082°26'0 0.0
2018-Feb-07 04:30N 27°56' W 082°26'0 0.0
2018-Feb-07 04:00N 27°56' W 082°26'0 0.0
2018-Feb-07 03:30N 27°56' W 082°26'0 0.0
2018-Feb-07 03:00N 27°56' W 082°26'0 0.0
2018-Feb-07 02:30N 27°56' W 082°26'0 0.0
2018-Feb-07 02:00N 27°56' W 082°26'0 0.0
2018-Feb-07 01:30N 27°56' W 082°26'0 0.0
2018-Feb-07 01:00N 27°56' W 082°26'0 0.0
2018-Feb-07 00:30N 27°56' W 082°26'0 0.0
2018-Feb-07 00:00N 27°56' W 082°26'0 0.0
2018-Feb-06 23:29N 27°56' W 082°26'0 0.0
2018-Feb-06 23:00N 27°56' W 082°26'0 0.0
2018-Feb-06 22:29N 27°56' W 082°26'0 0.0
2018-Feb-06 22:00N 27°56' W 082°26'0 0.0
2018-Feb-06 21:30N 27°56' W 082°26'0 0.0
2018-Feb-06 21:00N 27°56' W 082°26'0 0.0
2018-Feb-06 20:30N 27°56' W 082°26'0 0.0
2018-Feb-06 19:59N 27°56' W 082°26'0 0.0
2018-Feb-06 19:30N 27°56' W 082°26'0 0.0
2018-Feb-06 19:00N 27°56' W 082°26'0 0.0
2018-Feb-06 18:28N 27°56' W 082°26'0 0.0
2018-Feb-06 18:00N 27°56' W 082°26'0 0.0
2018-Feb-06 17:30N 27°56' W 082°26'  
Track history (hours):
 
Tides and Currents Weather Stations Pressure Air Temp Water Temp Dewpoint Dewpoint Depression Visibility Wind Speed Wind Dir Waves Ship Positions

Independent

Last reported at 2018-Feb-16 17:12 UTC. Time now 2018-Feb-19 06:29 UTC.
Position N 27°41' W 082°35'.

Length 28 m; draft 5 m.

Type: Tug. MMSI: 367777460.

Date/timePositionNaut miles runAvg speedWind from/ knotsBaromVisibWave heightAir tempDewpointWater temp
2018-Feb-16 17:12N 27°41' W 082°35'2 9.6
2018-Feb-16 17:00N 27°42' W 082°33'4 8.7
2018-Feb-16 16:30N 27°46' W 082°31'4 7.5
2018-Feb-16 16:01N 27°49' W 082°34'3 5.6
2018-Feb-16 15:30N 27°52' W 082°33'0 0.8
2018-Feb-16 15:00N 27°52' W 082°33'0 0.1
2018-Feb-16 14:30N 27°52' W 082°33'4 8.1
2018-Feb-16 14:01N 27°48' W 082°34'4 8.9
2018-Feb-16 13:30N 27°44' W 082°32'610.3
2018-Feb-16 12:56N 27°39' W 082°36'2 0.4
2018-Feb-16 07:42N 27°38' W 082°34'1 2.6
2018-Feb-16 07:20N 27°39' W 082°35'2 5.1
2018-Feb-16 06:59N 27°39' W 082°37'1 0.9
2018-Feb-16 06:25N 27°39' W 082°37'2 2.3
2018-Feb-16 05:30N 27°40' W 082°36'3 6.8
2018-Feb-16 05:00N 27°43' W 082°33'4 8.9
2018-Feb-16 04:30N 27°47' W 082°31'5 9.5
2018-Feb-16 04:00N 27°49' W 082°27'5 9.5
2018-Feb-16 03:30N 27°54' W 082°26'1 2.5
2018-Feb-16 03:01N 27°55' W 082°25'1 1.2
2018-Feb-16 02:30N 27°55' W 082°26'0 0.9
2018-Feb-16 01:59N 27°54' W 082°26'0 0.0
2018-Feb-16 01:30N 27°54' W 082°26'0 0.0
2018-Feb-16 01:00N 27°54' W 082°26'0 0.0
2018-Feb-16 00:30N 27°54' W 082°26'1 1.3
2018-Feb-16 00:00N 27°55' W 082°27'1 1.3
2018-Feb-15 23:30N 27°54' W 082°26'0 0.0
2018-Feb-15 23:00N 27°55' W 082°26'0 0.0
2018-Feb-15 22:30N 27°55' W 082°26'0 0.0
2018-Feb-15 22:00N 27°55' W 082°26'2 3.1
2018-Feb-15 21:30N 27°56' W 082°26'0 0.0
2018-Feb-15 20:59N 27°56' W 082°26'0 0.0
2018-Feb-15 20:30N 27°56' W 082°26'0 0.0
2018-Feb-15 19:57N 27°56' W 082°26'2 4.5
2018-Feb-15 19:30N 27°54' W 082°25'0 0.0
2018-Feb-15 19:00N 27°54' W 082°25'1 1.5
2018-Feb-15 18:30N 27°54' W 082°26'1 2.9
2018-Feb-15 18:01N 27°53' W 082°26'3 5.1
2018-Feb-15 17:31N 27°55' W 082°26'1 1.4
2018-Feb-15 17:00N 27°56' W 082°26'1 1.9
2018-Feb-15 16:30N 27°55' W 082°25'0 0.3
2018-Feb-15 16:00N 27°55' W 082°26'2 4.3
2018-Feb-15 15:30N 27°53' W 082°26'4 8.3
2018-Feb-15 15:00N 27°49' W 082°27'2 3.9
2018-Feb-15 14:30N 27°48' W 082°25'0 0.3
2018-Feb-15 14:00N 27°48' W 082°25'0 0.5
2018-Feb-15 13:30N 27°48' W 082°24'0 0.0
2018-Feb-15 13:00N 27°48' W 082°24'0 0.5
2018-Feb-15 12:29N 27°48' W 082°25'0 0.0
2018-Feb-15 11:57N 27°48' W 082°25'0 0.0
2018-Feb-15 11:30N 27°48' W 082°25'0 0.0
2018-Feb-15 11:00N 27°48' W 082°25'0 0.0
2018-Feb-15 10:27N 27°48' W 082°25'0 0.0
2018-Feb-15 10:00N 27°48' W 082°25'0 0.0
2018-Feb-15 09:26N 27°48' W 082°25'0 0.0
2018-Feb-15 09:00N 27°48' W 082°25'0 0.0
2018-Feb-15 08:30N 27°48' W 082°25'0 0.0
2018-Feb-15 08:00N 27°48' W 082°25'0 0.0
2018-Feb-15 07:30N 27°48' W 082°25'0 0.0
2018-Feb-15 07:00N 27°48' W 082°25'0 0.0
2018-Feb-15 06:30N 27°48' W 082°25'0 0.0
2018-Feb-15 05:50N 27°48' W 082°25'0 0.1
2018-Feb-15 05:30N 27°48' W 082°25'510.4
2018-Feb-15 05:01N 27°47' W 082°30'510.9
2018-Feb-15 04:30N 27°42' W 082°33'4 5.9
2018-Feb-15 03:45N 27°38' W 082°34'3 2.2
2018-Feb-15 02:22N 27°41' W 082°35'3 8.8
2018-Feb-15 02:01N 27°43' W 082°32'5 9.1
2018-Feb-15 01:30N 27°47' W 082°31'5 9.4
2018-Feb-15 01:01N 27°50' W 082°27'4 7.8
2018-Feb-15 00:30N 27°54' W 082°26'1 2.0
2018-Feb-15 00:01N 27°55' W 082°27'0 0.6
2018-Feb-14 23:30N 27°55' W 082°27'2 3.8
2018-Feb-14 23:00N 27°53' W 082°26'2 3.8
2018-Feb-14 22:30N 27°51' W 082°27'510.2
2018-Feb-14 22:00N 27°47' W 082°31'4 8.2
2018-Feb-14 21:30N 27°50' W 082°34'2 3.5
2018-Feb-14 21:01N 27°52' W 082°33'1 2.0
2018-Feb-14 20:30N 27°51' W 082°34'2 4.3
2018-Feb-14 20:01N 27°49' W 082°34'5 9.5
2018-Feb-14 19:31N 27°48' W 082°29'510.5
2018-Feb-14 19:00N 27°53' W 082°26'3 5.1
2018-Feb-14 18:30N 27°55' W 082°27'0 0.1
2018-Feb-14 18:00N 27°55' W 082°27'1 2.0
2018-Feb-14 17:30N 27°56' W 082°26'0 0.0
2018-Feb-14 16:55N 27°56' W 082°26'0 0.0
2018-Feb-14 16:30N 27°56' W 082°26'0 0.0
2018-Feb-14 16:00N 27°56' W 082°26'0 0.0
2018-Feb-14 15:30N 27°56' W 082°26'0 0.0
2018-Feb-14 15:00N 27°56' W 082°26'0 0.0
2018-Feb-14 14:30N 27°56' W 082°26'0 0.0
2018-Feb-14 14:00N 27°56' W 082°26'0 0.0
2018-Feb-14 13:29N 27°56' W 082°26'0 0.0
2018-Feb-14 13:00N 27°56' W 082°26'0 0.0
2018-Feb-14 12:30N 27°56' W 082°26'0 0.0
2018-Feb-14 12:00N 27°56' W 082°26'0 0.0
2018-Feb-14 11:30N 27°56' W 082°26'0 0.0
2018-Feb-14 10:58N 27°56' W 082°26'0 0.0
2018-Feb-14 10:30N 27°56' W 082°26'0 0.0
2018-Feb-14 10:00N 27°56' W 082°26'0 0.0
2018-Feb-14 09:30N 27°56' W 082°26'0 0.0
2018-Feb-14 09:00N 27°56' W 082°26'0 0.0
2018-Feb-14 08:30N 27°56' W 082°26'2 3.3
2018-Feb-14 08:00N 27°54' W 082°26'2 4.5
2018-Feb-14 07:30N 27°57' W 082°27'0 0.0
2018-Feb-14 07:00N 27°57' W 082°27'1 2.8
2018-Feb-14 06:30N 27°55' W 082°27'2 4.9
2018-Feb-14 06:00N 27°53' W 082°27'2 4.4
2018-Feb-14 05:31N 27°51' W 082°27'611.4
2018-Feb-14 05:01N 27°47' W 082°31'9 2.6
2018-Feb-14 01:29N 27°38' W 082°34'0 0.1
2018-Feb-14 01:00N 27°38' W 082°34'2 2.5
2018-Feb-14 00:18N 27°39' W 082°35'2 1.3
2018-Feb-13 22:20N 27°41' W 082°34'412.1
2018-Feb-13 22:00N 27°45' W 082°32'510.5
2018-Feb-13 21:30N 27°48' W 082°28'611.6
2018-Feb-13 21:00N 27°54' W 082°26'0 0.7
2018-Feb-13 20:31N 27°54' W 082°26'1 2.8
2018-Feb-13 20:00N 27°53' W 082°26'3 5.2
2018-Feb-13 19:31N 27°55' W 082°26'1 1.3
2018-Feb-13 19:00N 27°56' W 082°26'0 0.0
2018-Feb-13 18:30N 27°56' W 082°26'0 0.0
2018-Feb-13 18:00N 27°56' W 082°26'0 0.0
2018-Feb-13 17:30N 27°56' W 082°26'0 0.0
2018-Feb-13 16:59N 27°56' W 082°26'0 0.0
2018-Feb-13 16:30N 27°56' W 082°26'0 0.0
2018-Feb-13 15:59N 27°56' W 082°26'0 0.0
2018-Feb-13 15:30N 27°56' W 082°26'0 0.0
2018-Feb-13 15:00N 27°56' W 082°26'0 0.0
2018-Feb-13 14:30N 27°56' W 082°26'0 0.0
2018-Feb-13 14:00N 27°56' W 082°26'0 0.0
2018-Feb-13 13:30N 27°56' W 082°26'0 0.0
2018-Feb-13 13:00N 27°56' W 082°26'0 0.0
2018-Feb-13 12:30N 27°56' W 082°26'0 0.0
2018-Feb-13 12:00N 27°56' W 082°26'0 0.0
2018-Feb-13 11:30N 27°56' W 082°26'0 0.0
2018-Feb-13 11:00N 27°56' W 082°26'0 0.0
2018-Feb-13 10:30N 27°56' W 082°26'0 0.0
2018-Feb-13 10:00N 27°56' W 082°26'0 0.0
2018-Feb-13 09:30N 27°56' W 082°26'0 0.0
2018-Feb-13 09:00N 27°56' W 082°26'0 0.0
2018-Feb-13 08:30N 27°56' W 082°26'0 0.0
2018-Feb-13 08:00N 27°56' W 082°26'0 0.0
2018-Feb-13 07:30N 27°56' W 082°26'0 0.0
2018-Feb-13 07:00N 27°56' W 082°26'0 0.0
2018-Feb-13 06:30N 27°56' W 082°26'0 0.0
2018-Feb-13 06:00N 27°56' W 082°26'0 0.0
2018-Feb-13 05:30N 27°56' W 082°26'0 0.3
2018-Feb-13 05:00N 27°56' W 082°26'510.0
2018-Feb-13 04:30N 27°51' W 082°27'5 9.7
2018-Feb-13 04:00N 27°47' W 082°30'510.6
2018-Feb-13 03:30N 27°42' W 082°33'1 0.1
2018-Feb-12 11:22N 27°42' W 082°33'3 9.0
2018-Feb-12 11:00N 27°45' W 082°32'4 7.6
2018-Feb-12 10:30N 27°48' W 082°29'4 7.6
2018-Feb-12 10:01N 27°51' W 082°27'4 7.0
2018-Feb-12 09:30N 27°54' W 082°26'2 3.9
2018-Feb-12 09:00N 27°56' W 082°27'0 0.5
2018-Feb-12 08:30N 27°56' W 082°27'0 0.0
2018-Feb-12 08:00N 27°56' W 082°27'0 0.0
2018-Feb-12 07:30N 27°56' W 082°27'0 0.0
2018-Feb-12 07:00N 27°56' W 082°27'0 0.0
2018-Feb-12 06:30N 27°56' W 082°27'0 0.0
2018-Feb-12 06:00N 27°56' W 082°27'0 0.0
2018-Feb-12 05:30N 27°56' W 082°27'0 0.0
2018-Feb-12 05:00N 27°56' W 082°27'0 0.0
2018-Feb-12 04:30N 27°56' W 082°27'0 0.0
2018-Feb-12 04:00N 27°56' W 082°27'0 0.0
2018-Feb-12 03:30N 27°56' W 082°27'0 0.0
2018-Feb-12 03:00N 27°56' W 082°27'0 0.0
2018-Feb-12 02:30N 27°56' W 082°27'0 0.0
2018-Feb-12 02:01N 27°56' W 082°27'1 1.6
2018-Feb-12 01:30N 27°57' W 082°27'1 2.6
2018-Feb-12 01:00N 27°56' W 082°27'1 1.8
2018-Feb-12 00:30N 27°55' W 082°27'1 2.4
2018-Feb-12 00:00N 27°56' W 082°26'0 0.0
2018-Feb-11 23:30N 27°56' W 082°26'0 0.0
2018-Feb-11 23:00N 27°56' W 082°26'0 0.0
2018-Feb-11 22:30N 27°56' W 082°26'0 0.0
2018-Feb-11 22:00N 27°56' W 082°26'0 0.0
2018-Feb-11 21:30N 27°56' W 082°26'0 0.0
2018-Feb-11 21:00N 27°56' W 082°26'0 0.0
2018-Feb-11 20:29N 27°56' W 082°26'0 0.0
2018-Feb-11 20:00N 27°56' W 082°26'0 0.0
2018-Feb-11 19:30N 27°56' W 082°26'0 0.0
2018-Feb-11 19:00N 27°56' W 082°26'0 0.0
2018-Feb-11 18:30N 27°56' W 082°26'0 0.0
2018-Feb-11 18:00N 27°56' W 082°26'0 0.0
2018-Feb-11 17:30N 27°56' W 082°26'0 0.0
2018-Feb-11 17:00N 27°56' W 082°26'0 0.0
2018-Feb-11 16:30N 27°56' W 082°26'0 0.0
2018-Feb-11 16:00N 27°56' W 082°26'0 0.0
2018-Feb-11 15:29N 27°56' W 082°26'0 0.0
2018-Feb-11 15:00N 27°56' W 082°26'0 0.0
2018-Feb-11 14:30N 27°56' W 082°26'0 0.0
2018-Feb-11 13:58N 27°56' W 082°26'0 0.0
2018-Feb-11 13:30N 27°56' W 082°26'0 0.0
2018-Feb-11 13:00N 27°56' W 082°26'0 0.0
2018-Feb-11 12:30N 27°56' W 082°26'0 0.0
2018-Feb-11 12:00N 27°56' W 082°26'0 0.0
2018-Feb-11 11:30N 27°56' W 082°26'0 0.1
2018-Feb-11 11:00N 27°56' W 082°26'1 2.1
2018-Feb-11 10:31N 27°55' W 082°27'0 0.2
2018-Feb-11 10:00N 27°55' W 082°27'0 0.1
2018-Feb-11 09:30N 27°55' W 082°27'0 0.4
2018-Feb-11 09:00N 27°55' W 082°27'0 0.3
2018-Feb-11 08:30N 27°55' W 082°27'1 2.0
2018-Feb-11 08:00N 27°54' W 082°26'1 1.4
2018-Feb-11 07:30N 27°55' W 082°26'0 0.0
2018-Feb-11 07:00N 27°55' W 082°26'0 0.5
2018-Feb-11 06:31N 27°55' W 082°26'0 0.8
2018-Feb-11 06:00N 27°55' W 082°26'0 0.4
2018-Feb-11 05:30N 27°55' W 082°26'0 0.0
2018-Feb-11 05:00N 27°55' W 082°26'0 0.0
2018-Feb-11 04:30N 27°55' W 082°26'0 0.0
2018-Feb-11 04:01N 27°55' W 082°26'1 2.7
2018-Feb-11 03:30N 27°56' W 082°27'0 0.8
2018-Feb-11 03:00N 27°56' W 082°27'1 1.3
2018-Feb-11 02:30N 27°56' W 082°27'2 4.3
2018-Feb-11 02:00N 27°53' W 082°26'0 0.8
2018-Feb-11 01:30N 27°54' W 082°26'1 2.9
2018-Feb-11 01:00N 27°55' W 082°25'0 0.5
2018-Feb-11 00:30N 27°55' W 082°25'0 0.0
2018-Feb-11 00:00N 27°55' W 082°25'1 2.1
2018-Feb-10 23:30N 27°56' W 082°26'0 0.0
2018-Feb-10 23:00N 27°56' W 082°26'0 0.0
2018-Feb-10 22:30N 27°56' W 082°26'0 0.0
2018-Feb-10 22:00N 27°56' W 082°26'0 0.0
2018-Feb-10 21:30N 27°56' W 082°26'0 0.0
2018-Feb-10 21:00N 27°56' W 082°26'0 0.0
2018-Feb-10 20:30N 27°56' W 082°26'1 1.8
2018-Feb-10 20:00N 27°55' W 082°26'1 1.6
2018-Feb-10 19:30N 27°55' W 082°27'0 0.5
2018-Feb-10 19:00N 27°55' W 082°27'1 2.0
2018-Feb-10 18:30N 27°54' W 082°26'0 0.5
2018-Feb-10 18:01N 27°54' W 082°25'1 1.2
2018-Feb-10 17:30N 27°55' W 082°26'0 0.0
2018-Feb-10 17:00N 27°55' W 082°26'0 0.0
2018-Feb-10 16:30N 27°55' W 082°26'0 0.0
2018-Feb-10 15:59N 27°55' W 082°26'0 0.0
2018-Feb-10 15:30N 27°55' W 082°26'0 0.0
2018-Feb-10 15:00N 27°55' W 082°26'0 0.0
2018-Feb-10 14:30N 27°55' W 082°26'0 0.0
2018-Feb-10 14:00N 27°55' W 082°26'0 0.4
2018-Feb-10 13:31N 27°55' W 082°26'1 1.9
2018-Feb-10 13:00N 27°55' W 082°27'1 1.0
2018-Feb-10 12:30N 27°55' W 082°26'2 3.5
2018-Feb-10 12:00N 27°53' W 082°26'0 0.1
2018-Feb-10 11:30N 27°53' W 082°26'3 6.2
2018-Feb-10 11:00N 27°56' W 082°26'0 0.1
2018-Feb-10 10:30N 27°56' W 082°26'0 0.0
2018-Feb-10 10:00N 27°56' W 082°26'0 0.0
2018-Feb-10 09:30N 27°56' W 082°26'0 0.0
2018-Feb-10 09:00N 27°56' W 082°26'0 0.0
2018-Feb-10 08:30N 27°56' W 082°26'0 0.0
2018-Feb-10 08:00N 27°56' W 082°26'0 0.0
2018-Feb-10 07:30N 27°56' W 082°26'0 0.0
2018-Feb-10 07:00N 27°56' W 082°26'0 0.0
2018-Feb-10 06:30N 27°56' W 082°26'0 0.0
2018-Feb-10 06:00N 27°56' W 082°26'0 0.0
2018-Feb-10 05:30N 27°56' W 082°26'0 0.0
2018-Feb-10 05:00N 27°56' W 082°26'0 0.0
2018-Feb-10 04:30N 27°56' W 082°26'0 0.0
2018-Feb-10 04:00N 27°56' W 082°26'0 0.0
2018-Feb-10 03:30N 27°56' W 082°26'0 0.0
2018-Feb-10 03:00N 27°56' W 082°26'0 0.0
2018-Feb-10 02:30N 27°56' W 082°26'1 1.2
2018-Feb-10 02:00N 27°56' W 082°26'1 2.5
2018-Feb-10 01:30N 27°56' W 082°27'0 0.1
2018-Feb-10 01:01N 27°56' W 082°27'0 0.9
2018-Feb-10 00:30N 27°56' W 082°27'2 4.0
2018-Feb-10 00:00N 27°54' W 082°25'0 0.2
2018-Feb-09 23:30N 27°54' W 082°26'0 0.8
2018-Feb-09 23:00N 27°54' W 082°26'1 4.2
2018-Feb-09 22:46N 27°53' W 082°26'1 1.0
2018-Feb-09 22:01N 27°54' W 082°26'2 0.5
2018-Feb-09 18:00N 27°56' W 082°26'0 0.0
2018-Feb-09 17:00N 27°56' W 082°26'1 0.6
2018-Feb-09 15:31N 27°57' W 082°27'3 1.3
2018-Feb-09 13:30N 27°54' W 082°26'2 3.6
2018-Feb-09 13:00N 27°56' W 082°26'0 0.0
2018-Feb-09 10:00N 27°56' W 082°26'0 0.0
2018-Feb-09 09:30N 27°56' W 082°26'0 0.0
2018-Feb-09 08:30N 27°56' W 082°26'0 0.0
2018-Feb-09 08:00N 27°56' W 082°26'0 0.0
2018-Feb-09 06:30N 27°56' W 082°26'0 0.0
2018-Feb-09 06:00N 27°56' W 082°26'0 0.0
2018-Feb-09 05:30N 27°56' W 082°26'1 1.2
2018-Feb-09 04:30N 27°55' W 082°25'0 0.6
2018-Feb-09 04:00N 27°55' W 082°26'0 0.0
2018-Feb-09 03:30N 27°55' W 082°26'0 0.0
2018-Feb-09 02:30N 27°55' W 082°26'2 0.8
2018-Feb-09 00:30N 27°53' W 082°26'3 2.6
2018-Feb-08 23:30N 27°56' W 082°26'1 0.7
2018-Feb-08 22:30N 27°55' W 082°26'510.0
2018-Feb-08 22:00N 27°50' W 082°27'5 9.5
2018-Feb-08 21:30N 27°47' W 082°31'510.1
2018-Feb-08 21:00N 27°43' W 082°33'0 0.0
2018-Feb-08 17:30N 27°43' W 082°33'510.2
2018-Feb-08 17:00N 27°47' W 082°31'7 3.7
2018-Feb-08 15:00N 27°54' W 082°26'2 4.6
2018-Feb-08 14:30N 27°56' W 082°26'0 0.0
2018-Feb-08 13:30N 27°56' W 082°26'0 0.0
2018-Feb-08 10:00N 27°56' W 082°26'0 0.0
2018-Feb-08 08:30N 27°56' W 082°26'0 0.0
2018-Feb-08 07:30N 27°56' W 082°26'0 0.0
2018-Feb-08 06:30N 27°56' W 082°26'0 0.0
2018-Feb-08 05:30N 27°56' W 082°26'0 0.0
2018-Feb-08 04:30N 27°56' W 082°26'0 0.0
2018-Feb-08 03:30N 27°56' W 082°26'0 0.0
2018-Feb-08 03:00N 27°56' W 082°26'0 0.0
2018-Feb-08 02:30N 27°56' W 082°26'0 0.0
2018-Feb-08 01:29N 27°56' W 082°26'0 0.0
2018-Feb-08 01:00N 27°56' W 082°26'0 0.0
2018-Feb-08 00:30N 27°56' W 082°26'0 0.0
2018-Feb-08 00:00N 27°56' W 082°26'0 0.0
2018-Feb-07 23:30N 27°56' W 082°26'0 0.0
2018-Feb-07 23:00N 27°56' W 082°26'0 0.0
2018-Feb-07 22:30N 27°56' W 082°26'0 0.0
2018-Feb-07 22:00N 27°56' W 082°26'0 0.0
2018-Feb-07 21:29N 27°56' W 082°26'0 0.0
2018-Feb-07 09:29N 27°56' W 082°26'0 0.0
2018-Feb-07 09:00N 27°56' W 082°26'0 0.0
2018-Feb-07 08:30N 27°56' W 082°26'0 0.0
2018-Feb-07 08:00N 27°56' W 082°26'0 0.0
2018-Feb-07 07:30N 27°56' W 082°26'0 0.0
2018-Feb-07 07:00N 27°56' W 082°26'0 0.0
2018-Feb-07 06:30N 27°56' W 082°26'0 0.0
2018-Feb-07 05:59N 27°56' W 082°26'0 0.0
2018-Feb-07 05:29N 27°56' W 082°26'0 0.0
2018-Feb-07 05:00N 27°56' W 082°26'0 0.0
2018-Feb-07 04:30N 27°56' W 082°26'0 0.0
2018-Feb-07 04:00N 27°56' W 082°26'0 0.0
2018-Feb-07 03:30N 27°56' W 082°26'0 0.0
2018-Feb-07 03:00N 27°56' W 082°26'0 0.0
2018-Feb-07 02:30N 27°56' W 082°26'0 0.0
2018-Feb-07 02:00N 27°56' W 082°26'0 0.0
2018-Feb-07 01:30N 27°56' W 082°26'0 0.0
2018-Feb-07 01:00N 27°56' W 082°26'0 0.0
2018-Feb-07 00:30N 27°56' W 082°26'0 0.0
2018-Feb-07 00:00N 27°56' W 082°26'0 0.0
2018-Feb-06 23:29N 27°56' W 082°26'0 0.0
2018-Feb-06 23:00N 27°56' W 082°26'0 0.0
2018-Feb-06 22:29N 27°56' W 082°26'0 0.0
2018-Feb-06 22:00N 27°56' W 082°26'0 0.0
2018-Feb-06 21:30N 27°56' W 082°26'0 0.0
2018-Feb-06 21:00N 27°56' W 082°26'0 0.0
2018-Feb-06 20:30N 27°56' W 082°26'0 0.0
2018-Feb-06 19:59N 27°56' W 082°26'0 0.0
2018-Feb-06 19:30N 27°56' W 082°26'0 0.0
2018-Feb-06 19:00N 27°56' W 082°26'0 0.0
2018-Feb-06 18:28N 27°56' W 082°26'0 0.0
2018-Feb-06 18:00N 27°56' W 082°26'0 0.0
2018-Feb-06 17:30N 27°56' W 082°26'  

Dump ship's entire track history